Time;durP1;ratioP1;P1;durP2;ratioP2;P2;SDS_P1;SDS_P2;PMS_P1;PMS_P2;Temp;Humidity;BMP_temperature;BMP_pressure;BME280_temperature;BME280_humidity;BME280_pressure;Samples;Min_cycle;Max_cycle;Signal;HPM_P1;HPM_P2
2023/05/31 00:00:57;;;;;;;8.53;3.20;;;;;;;11.32;94.68;101915.97;6030820;28;20241;-67
2023/05/31 00:03:52;;;;;;;8.05;3.67;;;;;;;11.47;94.35;101920.06;6033308;28;20033;-67
2023/05/31 00:06:47;;;;;;;8.33;2.90;;;;;;;11.64;94.04;101930.19;6026807;28;20466;-66
2023/05/31 00:09:43;;;;;;;11.13;3.93;;;;;;;11.45;92.60;101927.31;6023043;28;20019;-66
2023/05/31 00:12:38;;;;;;;11.10;3.10;;;;;;;11.34;93.22;101924.66;6025563;28;20049;-65
2023/05/31 00:15:33;;;;;;;6.63;2.47;;;;;;;11.42;93.93;101939.97;6046530;28;20145;-66
2023/05/31 00:18:29;;;;;;;12.30;2.93;;;;;;;11.35;93.97;101936.97;6050600;28;20026;-66
2023/05/31 00:21:24;;;;;;;7.10;2.50;;;;;;;11.16;94.50;101944.69;6047449;28;20331;-66
2023/05/31 00:24:19;;;;;;;6.70;2.70;;;;;;;11.02;95.65;101952.88;6023638;28;20277;-66
2023/05/31 00:27:15;;;;;;;9.88;3.00;;;;;;;10.70;96.61;101934.97;6020431;28;20324;-66
2023/05/31 00:30:11;;;;;;;7.28;2.72;;;;;;;10.66;97.22;101944.13;6026527;28;20094;-66
2023/05/31 00:33:06;;;;;;;8.60;2.92;;;;;;;10.53;97.84;101940.69;6026067;28;20030;-66
2023/05/31 00:36:01;;;;;;;8.47;2.90;;;;;;;10.34;98.13;101931.59;6017014;28;20026;-66
2023/05/31 00:38:57;;;;;;;8.37;2.60;;;;;;;10.20;99.20;101937.91;6026113;28;20155;-66
2023/05/31 00:41:52;;;;;;;8.52;3.05;;;;;;;9.95;99.96;101930.88;6026290;28;20480;-66
2023/05/31 00:44:48;;;;;;;11.27;3.30;;;;;;;9.88;100.00;101939.41;6018278;28;20033;-66
2023/05/31 00:47:43;;;;;;;8.13;2.80;;;;;;;9.66;100.00;101948.03;6049915;28;20444;-68
2023/05/31 00:50:38;;;;;;;6.75;3.10;;;;;;;9.54;100.00;101947.09;6031749;28;20433;-66
2023/05/31 00:53:34;;;;;;;7.80;3.27;;;;;;;9.66;100.00;101955.13;6025428;28;20045;-66
2023/05/31 00:56:29;;;;;;;8.52;3.60;;;;;;;10.31;100.00;101963.63;6026250;28;20113;-66
2023/05/31 00:59:25;;;;;;;6.95;2.80;;;;;;;10.95;100.00;101947.19;6017505;28;20038;-66
2023/05/31 01:02:20;;;;;;;10.70;3.00;;;;;;;11.21;95.34;101945.19;6019269;28;20042;-65
2023/05/31 01:05:16;;;;;;;5.72;2.90;;;;;;;10.58;95.99;101951.81;6019550;28;20030;-66
2023/05/31 01:08:11;;;;;;;8.25;3.50;;;;;;;10.19;97.92;101952.16;6023346;28;20041;-66
2023/05/31 01:11:12;;;;;;;5.75;2.60;;;;;;;9.99;99.33;101963.31;6028974;28;20382;-66
2023/05/31 01:14:21;;;;;;;4.55;2.45;;;;;;;9.71;100.00;101959.16;6046300;28;20561;-68
2023/05/31 01:17:30;;;;;;;13.25;3.65;;;;;;;9.59;100.00;101970.63;6027754;28;20027;-68
2023/05/31 01:20:27;;;;;;;7.00;3.30;;;;;;;9.43;100.00;101970.03;6017572;28;20045;-65
2023/05/31 01:23:44;;;;;;;7.38;2.80;;;;;;;9.48;100.00;101958.13;6023035;28;20478;-66
2023/05/31 01:26:53;;;;;;;7.43;2.92;;;;;;;10.83;100.00;101964.06;6043257;28;20037;-66
2023/05/31 01:29:50;;;;;;;11.30;3.55;;;;;;;10.95;99.10;101954.31;6031690;28;20513;-67
2023/05/31 01:32:46;;;;;;;10.18;3.15;;;;;;;10.95;96.59;101943.72;6039739;28;20030;-66
2023/05/31 01:35:41;;;;;;;7.18;3.08;;;;;;;10.65;94.17;101947.72;6040163;28;20030;-66
2023/05/31 01:38:36;;;;;;;6.20;3.07;;;;;;;10.23;97.03;101955.38;6049131;28;20108;-66
2023/05/31 01:41:41;;;;;;;7.50;2.77;;;;;;;9.81;98.55;101954.88;6053597;28;20108;-66
2023/05/31 01:44:38;;;;;;;8.95;3.30;;;;;;;9.65;100.00;101964.88;6040051;28;20072;-67
2023/05/31 01:47:34;;;;;;;6.65;3.05;;;;;;;9.43;100.00;101959.44;6026473;28;20109;-66
2023/05/31 01:50:31;;;;;;;7.43;2.72;;;;;;;9.74;100.00;101963.38;6028308;28;20034;-66
2023/05/31 01:53:26;;;;;;;8.45;2.53;;;;;;;9.92;100.00;101948.81;6029251;28;20065;-67
2023/05/31 01:56:23;;;;;;;8.55;3.20;;;;;;;10.24;99.83;101949.16;6022291;28;20030;-66
2023/05/31 01:59:19;;;;;;;8.35;2.80;;;;;;;10.27;98.79;101954.22;6042248;28;20482;-66
2023/05/31 02:02:14;;;;;;;12.82;2.75;;;;;;;9.79;99.50;101951.50;6029951;28;20030;-66
2023/05/31 02:05:13;;;;;;;7.80;2.67;;;;;;;9.55;100.00;101959.41;6021032;28;20027;-66
2023/05/31 02:08:08;;;;;;;10.00;3.17;;;;;;;9.75;100.00;101954.50;6028403;28;20042;-67
2023/05/31 02:11:03;;;;;;;9.33;3.37;;;;;;;9.79;100.00;101956.78;6029353;28;20034;-67
2023/05/31 02:13:58;;;;;;;8.40;3.17;;;;;;;9.44;100.00;101951.38;6028931;28;20361;-67
2023/05/31 02:16:54;;;;;;;10.47;2.97;;;;;;;9.28;100.00;101956.06;6029549;28;20270;-66
2023/05/31 02:19:51;;;;;;;9.43;2.70;;;;;;;8.93;100.00;101944.41;6029505;28;20069;-66
2023/05/31 02:22:47;;;;;;;9.80;2.92;;;;;;;8.76;100.00;101955.28;6027945;28;20022;-66
2023/05/31 02:25:45;;;;;;;10.75;3.33;;;;;;;8.75;100.00;101956.25;6027971;28;20117;-66
2023/05/31 02:28:41;;;;;;;9.93;3.58;;;;;;;8.88;100.00;101962.41;6029089;28;20038;-66
2023/05/31 02:31:36;;;;;;;10.57;3.17;;;;;;;8.65;100.00;101947.22;6029314;28;20034;-66
2023/05/31 02:34:32;;;;;;;9.00;3.78;;;;;;;8.63;100.00;101943.84;6028444;28;20145;-66
2023/05/31 02:37:27;;;;;;;11.43;3.38;;;;;;;8.55;100.00;101943.53;6028626;28;20070;-67
2023/05/31 02:40:22;;;;;;;8.10;3.40;;;;;;;9.11;100.00;101955.50;6029256;28;20030;-66
2023/05/31 02:43:18;;;;;;;10.10;4.07;;;;;;;9.48;100.00;101954.66;6028423;28;20121;-67
2023/05/31 02:46:13;;;;;;;9.43;3.00;;;;;;;9.07;100.00;101946.13;6028048;28;20018;-66
2023/05/31 02:49:08;;;;;;;14.82;4.13;;;;;;;8.78;100.00;101951.59;6028759;28;20038;-66
2023/05/31 02:52:04;;;;;;;7.53;2.90;;;;;;;8.49;100.00;101933.34;6027752;28;20539;-66
2023/05/31 02:54:59;;;;;;;6.85;3.13;;;;;;;8.42;100.00;101953.22;6028023;28;20018;-66
2023/05/31 02:57:55;;;;;;;10.13;3.47;;;;;;;8.30;100.00;101945.16;6028277;28;20034;-66
2023/05/31 03:00:50;;;;;;;9.55;3.05;;;;;;;8.43;100.00;101939.03;6025992;28;20026;-66
2023/05/31 03:03:46;;;;;;;10.17;2.90;;;;;;;8.20;100.00;101937.91;6034739;28;20030;-66
2023/05/31 03:06:42;;;;;;;10.63;3.20;;;;;;;8.26;100.00;101946.25;6024382;28;20042;-66
2023/05/31 03:09:37;;;;;;;8.10;3.47;;;;;;;8.58;100.00;101932.75;6028728;28;20038;-66
2023/05/31 03:12:32;;;;;;;11.03;3.47;;;;;;;8.73;100.00;101931.69;6027515;28;20045;-67
2023/05/31 03:15:28;;;;;;;7.43;3.05;;;;;;;8.76;100.00;101955.28;6027792;28;20072;-66
2023/05/31 03:18:23;;;;;;;9.88;3.50;;;;;;;8.57;100.00;101936.31;6027717;28;20042;-66
2023/05/31 03:21:19;;;;;;;11.10;3.63;;;;;;;8.45;100.00;101943.31;6027351;28;20030;-65
2023/05/31 03:24:14;;;;;;;8.63;3.10;;;;;;;8.51;100.00;101952.59;6027636;28;20033;-66
2023/05/31 03:27:09;;;;;;;7.90;3.60;;;;;;;8.52;100.00;101941.94;6027834;28;20026;-66
2023/05/31 03:30:06;;;;;;;9.95;3.90;;;;;;;8.54;100.00;101966.47;6028021;28;20037;-65
2023/05/31 03:33:02;;;;;;;11.63;4.07;;;;;;;8.44;100.00;101946.88;6027278;28;20782;-66
2023/05/31 03:35:57;;;;;;;10.05;3.47;;;;;;;8.51;100.00;101934.94;6026599;28;20239;-65
2023/05/31 03:38:54;;;;;;;11.23;3.40;;;;;;;8.58;100.00;101953.91;6027869;28;20058;-66
2023/05/31 03:41:50;;;;;;;12.85;3.88;;;;;;;8.78;100.00;101950.72;6026703;28;20273;-66
2023/05/31 03:44:45;;;;;;;13.10;3.70;;;;;;;8.58;100.00;101953.91;6027127;28;20485;-67
2023/05/31 03:47:40;;;;;;;7.93;3.07;;;;;;;8.53;100.00;101940.13;6014182;28;20072;-67
2023/05/31 03:50:36;;;;;;;7.00;3.30;;;;;;;8.50;100.00;101951.78;6027674;28;20054;-68
2023/05/31 03:53:31;;;;;;;12.97;3.77;;;;;;;8.44;100.00;101935.47;6045427;28;20109;-68
2023/05/31 03:56:26;;;;;;;13.83;3.97;;;;;;;8.29;100.00;101937.31;6050953;28;20269;-67
2023/05/31 03:59:22;;;;;;;13.30;3.43;;;;;;;8.21;100.00;101937.78;6041011;28;20042;-67
2023/05/31 04:02:17;;;;;;;8.43;3.20;;;;;;;8.33;100.00;101944.94;6026297;28;20026;-68
2023/05/31 04:05:12;;;;;;;7.93;3.20;;;;;;;8.59;100.00;101950.31;6021017;28;20058;-67
2023/05/31 04:08:07;;;;;;;8.00;3.03;;;;;;;8.43;100.00;101933.75;6040418;28;20461;-67
2023/05/31 04:11:03;;;;;;;8.80;3.20;;;;;;;8.54;100.00;101947.09;6036182;28;20045;-67
2023/05/31 04:13:58;;;;;;;8.07;3.07;;;;;;;8.51;100.00;101932.28;6026712;28;20377;-67
2023/05/31 04:16:53;;;;;;;7.87;3.33;;;;;;;8.71;100.00;101949.47;6026174;28;20313;-67
2023/05/31 04:19:49;;;;;;;9.27;3.23;;;;;;;9.13;100.00;101943.88;6017854;28;20270;-67
2023/05/31 04:22:45;;;;;;;10.85;3.95;;;;;;;9.64;100.00;101935.88;6014322;28;20080;-67
2023/05/31 04:25:40;;;;;;;8.05;3.70;;;;;;;10.15;100.00;101926.81;6023230;28;20030;-67
2023/05/31 04:28:35;;;;;;;19.23;3.23;;;;;;;10.98;100.00;101938.16;6026997;28;20091;-66
2023/05/31 04:31:31;;;;;;;11.80;3.53;;;;;;;11.71;100.00;101950.00;6037160;28;20034;-68
2023/05/31 04:34:27;;;;;;;8.85;3.13;;;;;;;12.45;96.14;101951.00;6049634;28;20030;-66
2023/05/31 04:37:22;;;;;;;10.37;2.80;;;;;;;12.83;89.73;101935.31;6029694;28;20470;-66
2023/05/31 04:40:19;;;;;;;7.40;2.70;;;;;;;13.84;85.45;101940.69;6019625;28;20282;-68
2023/05/31 04:43:15;;;;;;;6.30;2.65;;;;;;;14.02;81.62;101936.41;6026278;28;20374;-68
2023/05/31 04:46:10;;;;;;;5.87;2.93;;;;;;;14.06;79.31;101927.97;6026144;28;20030;-68
2023/05/31 04:49:05;;;;;;;7.85;3.05;;;;;;;14.27;79.92;101947.34;6024470;28;20034;-68
2023/05/31 04:52:01;;;;;;;6.67;2.57;;;;;;;14.52;77.50;101934.47;6025617;28;20478;-68
2023/05/31 04:55:00;;;;;;;10.07;3.30;;;;;;;14.45;75.39;101934.22;6025148;28;20042;-67
2023/05/31 04:57:56;;;;;;;11.23;2.70;;;;;;;14.92;75.94;101934.28;6006506;28;20172;-68
2023/05/31 05:00:51;;;;;;;10.80;3.07;;;;;;;15.08;74.22;101943.38;6021484;28;20045;-68
2023/05/31 05:03:47;;;;;;;10.93;2.97;;;;;;;14.79;73.68;101931.91;6025703;28;20055;-68
2023/05/31 05:06:42;;;;;;;9.83;2.80;;;;;;;14.18;75.48;101942.88;6025756;28;20032;-67
2023/05/31 05:09:37;;;;;;;5.90;2.80;;;;;;;14.46;75.97;101940.38;6025911;28;20061;-68
2023/05/31 05:12:33;;;;;;;6.60;2.72;;;;;;;14.96;75.41;101938.34;6026151;28;20062;-68
2023/05/31 05:15:28;;;;;;;8.60;2.97;;;;;;;15.04;73.77;101931.28;6023978;28;20026;-68
2023/05/31 05:18:23;;;;;;;5.53;2.97;;;;;;;15.51;71.71;101926.78;6021065;28;20085;-68
2023/05/31 05:21:18;;;;;;;9.70;3.17;;;;;;;15.11;70.64;101934.25;6025888;28;20374;-68
2023/05/31 05:24:15;;;;;;;8.60;2.83;;;;;;;14.67;74.42;101939.25;6025554;28;20041;-68
2023/05/31 05:27:10;;;;;;;8.48;3.45;;;;;;;15.84;68.41;101920.00;6026030;28;20396;-68
2023/05/31 05:30:07;;;;;;;6.65;3.25;;;;;;;15.62;67.01;101931.09;6025605;28;20031;-68
2023/05/31 05:33:02;;;;;;;7.90;3.10;;;;;;;15.48;70.71;101935.09;6025435;28;20438;-68
2023/05/31 05:35:58;;;;;;;9.97;2.87;;;;;;;15.27;70.60;101927.25;6015780;28;20033;-68
2023/05/31 05:38:53;;;;;;;8.90;3.20;;;;;;;15.75;68.90;101939.59;6025844;28;20023;-68
2023/05/31 05:41:49;;;;;;;7.95;3.10;;;;;;;16.25;65.94;101940.81;6025598;28;20041;-68
2023/05/31 05:44:45;;;;;;;7.05;2.80;;;;;;;15.63;68.33;101944.31;6024997;28;20034;-68
2023/05/31 05:47:44;;;;;;;8.23;3.15;;;;;;;16.44;66.74;101945.19;6044803;28;20515;-68
2023/05/31 05:50:40;;;;;;;6.30;2.53;;;;;;;16.26;64.77;101945.16;6049115;28;20442;-68
2023/05/31 05:53:36;;;;;;;7.47;2.80;;;;;;;15.57;67.54;101954.78;6048849;28;20034;-68
2023/05/31 05:56:31;;;;;;;6.90;2.73;;;;;;;16.51;64.25;101941.72;6048977;28;20026;-68
2023/05/31 05:59:26;;;;;;;7.93;2.97;;;;;;;16.03;66.80;101935.91;6035718;28;20166;-68
2023/05/31 06:02:22;;;;;;;7.50;2.67;;;;;;;16.96;63.48;101938.09;6017638;28;20355;-68
2023/05/31 06:05:17;;;;;;;6.80;2.78;;;;;;;17.06;60.96;101925.41;6022107;28;20049;-68
2023/05/31 06:08:12;;;;;;;6.88;2.70;;;;;;;16.88;62.88;101935.34;6039160;28;20032;-67
2023/05/31 06:11:08;;;;;;;6.00;2.60;;;;;;;17.37;60.53;101944.50;6030635;28;20022;-68
2023/05/31 06:14:03;;;;;;;7.00;2.83;;;;;;;18.08;59.09;101953.03;6046094;28;20022;-68
2023/05/31 06:16:58;;;;;;;5.10;2.77;;;;;;;18.90;55.93;101929.59;6033361;28;20323;-68
2023/05/31 06:19:54;;;;;;;9.70;2.73;;;;;;;19.26;54.27;101942.63;6029051;28;20037;-67
2023/05/31 06:22:51;;;;;;;5.22;2.45;;;;;;;18.70;54.89;101941.72;6049129;28;20022;-68
2023/05/31 06:25:46;;;;;;;6.50;2.40;;;;;;;17.99;56.08;101945.97;6049489;28;20057;-68
2023/05/31 06:28:42;;;;;;;4.60;2.47;;;;;;;17.93;57.94;101946.63;6053201;28;20036;-68
2023/05/31 06:31:38;;;;;;;7.27;2.40;;;;;;;18.83;52.96;101930.47;6053068;28;20276;-68
2023/05/31 06:34:34;;;;;;;8.20;2.58;;;;;;;18.43;53.86;101944.69;6051828;28;20461;-68
2023/05/31 06:37:29;;;;;;;6.73;2.40;;;;;;;17.76;56.31;101948.41;6040942;28;20085;-67
2023/05/31 06:40:24;;;;;;;4.53;2.17;;;;;;;18.41;54.74;101941.34;6027870;28;20077;-67
2023/05/31 06:43:20;;;;;;;5.40;2.17;;;;;;;18.76;53.38;101932.97;6027200;28;20030;-67
2023/05/31 06:46:15;;;;;;;5.53;2.50;;;;;;;18.62;54.37;101933.66;6033263;28;20032;-67
2023/05/31 06:49:10;;;;;;;6.53;2.13;;;;;;;19.75;50.17;101929.84;6031631;28;20276;-67
2023/05/31 06:52:06;;;;;;;6.27;2.10;;;;;;;19.54;51.46;101936.66;6027528;28;20030;-66
2023/05/31 06:55:01;;;;;;;5.70;2.28;;;;;;;19.21;51.35;101945.84;6026517;28;20034;-68
2023/05/31 06:57:57;;;;;;;3.85;2.00;;;;;;;19.87;48.55;101937.34;6026344;28;20133;-66
2023/05/31 07:00:52;;;;;;;9.67;2.20;;;;;;;19.30;51.20;101933.19;6027015;28;20034;-67
2023/05/31 07:03:47;;;;;;;6.97;2.43;;;;;;;19.01;51.23;101940.00;6029946;28;20022;-67
2023/05/31 07:06:43;;;;;;;6.33;2.00;;;;;;;19.91;49.45;101936.00;6027616;28;20277;-67
2023/05/31 07:09:38;;;;;;;5.60;2.03;;;;;;;20.32;47.15;101917.75;6033003;28;20045;-67
2023/05/31 07:12:33;;;;;;;4.33;2.00;;;;;;;19.30;50.45;101930.50;6027557;28;20042;-67
2023/05/31 07:15:28;;;;;;;5.87;2.20;;;;;;;19.87;50.04;101926.59;6027449;28;20484;-67
2023/05/31 07:18:24;;;;;;;6.37;2.47;;;;;;;20.27;49.27;101917.47;6037931;28;20038;-67
2023/05/31 07:21:19;;;;;;;4.10;2.00;;;;;;;20.18;49.66;101927.41;6029434;28;20057;-67
2023/05/31 07:24:15;;;;;;;5.43;2.25;;;;;;;20.77;48.17;101924.94;6038196;28;20812;-66
2023/05/31 07:27:10;;;;;;;9.70;2.13;;;;;;;20.10;49.55;101938.25;6027802;28;20381;-66
2023/05/31 07:30:06;;;;;;;4.97;1.90;;;;;;;20.40;48.86;101933.00;6027949;28;20033;-66
2023/05/31 07:33:01;;;;;;;7.85;2.30;;;;;;;20.55;48.60;101923.09;6030684;28;20022;-67
2023/05/31 07:35:58;;;;;;;7.13;2.33;;;;;;;21.13;46.89;101920.56;6028833;28;20386;-66
2023/05/31 07:38:53;;;;;;;5.22;2.35;;;;;;;21.11;47.08;101925.31;6022421;28;20025;-67
2023/05/31 07:41:49;;;;;;;4.50;2.23;;;;;;;20.40;48.10;101916.84;6032049;28;20035;-67
2023/05/31 07:44:44;;;;;;;3.78;2.17;;;;;;;20.43;48.68;101933.50;6026684;28;20061;-67
2023/05/31 07:47:39;;;;;;;4.25;1.98;;;;;;;20.76;47.95;101912.50;6026830;28;20086;-67
2023/05/31 07:50:35;;;;;;;7.00;2.20;;;;;;;20.96;47.32;101902.81;6020053;28;20065;-67
2023/05/31 07:53:30;;;;;;;4.28;1.85;;;;;;;21.29;47.36;101927.63;6026329;28;20273;-67
2023/05/31 07:56:26;;;;;;;4.50;1.77;;;;;;;20.81;46.56;101910.06;6031188;28;20108;-67
2023/05/31 07:59:21;;;;;;;6.28;2.20;;;;;;;20.45;48.10;101914.44;6026305;28;20413;-67
2023/05/31 08:02:16;;;;;;;5.03;2.13;;;;;;;20.48;48.49;101924.88;6027034;28;20352;-67
2023/05/31 08:05:13;;;;;;;8.30;2.00;;;;;;;20.23;47.08;101920.63;6024284;28;20145;-67
2023/05/31 08:08:08;;;;;;;6.20;2.20;;;;;;;20.29;46.77;101910.03;6026722;28;20753;-67
2023/05/31 08:11:03;;;;;;;7.67;2.37;;;;;;;20.37;48.81;101915.34;6026477;28;20038;-67
2023/05/31 08:13:59;;;;;;;7.28;2.03;;;;;;;20.62;48.05;101902.50;6025529;28;20029;-68
2023/05/31 08:16:54;;;;;;;4.43;2.10;;;;;;;20.56;48.28;101892.44;6029055;28;20030;-67
2023/05/31 08:19:50;;;;;;;4.10;1.98;;;;;;;20.96;48.35;101912.78;6031427;28;20034;-67
2023/05/31 08:22:45;;;;;;;6.47;2.15;;;;;;;21.10;46.66;101903.91;6026573;28;20038;-67
2023/05/31 08:25:40;;;;;;;5.70;1.97;;;;;;;20.78;46.38;101911.28;6025827;28;20033;-67
2023/05/31 08:28:36;;;;;;;6.47;2.20;;;;;;;21.63;45.79;101909.00;6031435;28;20288;-68
2023/05/31 08:31:31;;;;;;;4.80;1.43;;;;;;;21.30;44.50;101895.06;6028638;28;20029;-67
2023/05/31 08:34:27;;;;;;;5.60;1.80;;;;;;;21.83;43.54;101872.25;6028443;28;20026;-67
2023/05/31 08:37:22;;;;;;;5.53;1.60;;;;;;;21.99;43.28;101884.69;6027320;28;20353;-67
2023/05/31 08:40:17;;;;;;;4.73;1.80;;;;;;;21.83;43.60;101893.84;6018235;28;20521;-67
2023/05/31 08:43:15;;;;;;;6.87;2.70;;;;;;;22.01;44.12;101882.66;6028730;28;20058;-67
2023/05/31 08:46:11;;;;;;;6.07;2.00;;;;;;;21.98;42.16;101888.44;6028347;28;20037;-68
2023/05/31 08:49:10;;;;;;;4.22;1.50;;;;;;;21.67;41.59;101891.38;6024867;28;20050;-67
2023/05/31 08:52:06;;;;;;;4.03;1.45;;;;;;;22.11;42.11;101880.47;6025911;28;20037;-67
2023/05/31 08:55:03;;;;;;;6.93;1.80;;;;;;;22.52;40.68;101870.66;6017643;28;20030;-67
2023/05/31 08:57:59;;;;;;;9.75;1.63;;;;;;;22.54;41.36;101882.09;6016132;28;20381;-68
2023/05/31 09:00:54;;;;;;;5.63;1.60;;;;;;;22.20;41.69;101873.06;6024250;28;20058;-67
2023/05/31 09:03:51;;;;;;;4.50;1.50;;;;;;;22.05;41.37;101873.13;6018734;28;20117;-68
2023/05/31 09:06:47;;;;;;;5.32;1.60;;;;;;;22.12;42.58;101867.78;6025182;28;20129;-68
2023/05/31 09:09:42;;;;;;;4.87;1.37;;;;;;;22.34;42.01;101862.16;6025380;28;20496;-68
2023/05/31 09:12:37;;;;;;;5.20;2.20;;;;;;;22.84;40.61;101857.59;6018270;28;20118;-68
2023/05/31 09:15:36;;;;;;;4.20;1.70;;;;;;;22.91;40.00;101858.47;6025448;28;20045;-68
2023/05/31 09:18:38;;;;;;;7.45;1.73;;;;;;;23.10;40.45;101863.19;6025656;28;20253;-67
2023/05/31 09:21:41;;;;;;;4.93;1.77;;;;;;;22.91;40.69;101847.66;6025763;28;20116;-68
2023/05/31 09:24:38;;;;;;;4.75;1.63;;;;;;;22.89;38.54;101855.13;6024890;28;20026;-68
2023/05/31 09:27:38;;;;;;;4.80;1.50;;;;;;;23.01;38.07;101857.09;6024919;28;20474;-67
2023/05/31 09:30:34;;;;;;;4.97;1.63;;;;;;;22.96;38.84;101864.13;6025270;28;20038;-68
2023/05/31 09:33:44;;;;;;;3.40;1.50;;;;;;;22.82;38.82;101870.47;6037972;28;20109;-68
2023/05/31 09:36:42;;;;;;;3.17;1.48;;;;;;;22.98;38.08;101848.53;6025396;28;20113;-68
2023/05/31 09:39:37;;;;;;;6.28;1.50;;;;;;;22.45;37.88;101852.69;6025065;28;20026;-68
2023/05/31 09:42:33;;;;;;;5.53;1.80;;;;;;;22.35;37.77;101826.00;6025431;28;20039;-69
2023/05/31 09:45:28;;;;;;;4.07;1.37;;;;;;;22.87;37.63;101857.19;6020358;28;20067;-68
2023/05/31 09:48:23;;;;;;;4.33;1.40;;;;;;;22.99;37.29;101859.13;6025066;28;20031;-68
2023/05/31 09:51:19;;;;;;;4.37;1.30;;;;;;;23.08;35.75;101846.28;6023561;28;20034;-68
2023/05/31 09:54:17;;;;;;;3.80;1.30;;;;;;;23.54;34.46;101846.50;6018909;28;20053;-68
2023/05/31 09:57:29;;;;;;;8.10;1.67;;;;;;;23.21;34.83;101849.03;6012733;28;20070;-68
2023/05/31 10:00:25;;;;;;;6.60;2.28;;;;;;;23.28;35.31;101844.53;6014544;28;20046;-68
2023/05/31 10:03:20;;;;;;;2.95;1.35;;;;;;;23.39;35.43;101835.84;6029007;28;20030;-68
2023/05/31 10:06:17;;;;;;;5.07;1.40;;;;;;;23.12;35.91;101828.63;6024731;28;20524;-68
2023/05/31 10:09:12;;;;;;;4.00;1.55;;;;;;;23.19;35.33;101845.72;6040333;28;20079;-69
2023/05/31 10:12:09;;;;;;;4.30;1.45;;;;;;;23.26;34.66;101824.09;6032951;28;20470;-68
2023/05/31 10:15:08;;;;;;;6.90;1.70;;;;;;;23.33;35.20;101835.78;6028173;28;20045;-68
2023/05/31 10:18:11;;;;;;;2.35;1.10;;;;;;;23.25;34.56;101812.44;6028521;28;20034;-68
2023/05/31 10:21:26;;;;;;;4.43;1.55;;;;;;;23.63;33.40;101827.19;6040399;28;20410;-68
2023/05/31 10:24:26;;;;;;;3.13;1.35;;;;;;;23.49;33.52;101830.88;6018487;28;20466;-68
2023/05/31 10:27:28;;;;;;;3.05;1.25;;;;;;;23.77;34.32;101821.78;6029281;28;20417;-68
2023/05/31 10:30:28;;;;;;;4.68;1.50;;;;;;;23.81;33.69;101831.19;6028930;28;20056;-68
2023/05/31 10:33:26;;;;;;;4.65;1.40;;;;;;;24.35;34.32;101829.16;6023833;28;20533;-68
2023/05/31 10:36:21;;;;;;;6.55;1.35;;;;;;;24.57;33.68;101816.22;6041610;28;20037;-68
2023/05/31 10:39:41;;;;;;;4.13;1.30;;;;;;;24.81;32.55;101816.41;6038721;28;20042;-68
2023/05/31 10:43:11;;;;;;;3.38;1.20;;;;;;;24.47;33.43;101807.66;6028043;28;20743;-68
2023/05/31 10:46:15;;;;;;;3.95;1.30;;;;;;;24.30;33.24;101818.09;6025226;28;20048;-68
2023/05/31 10:49:11;;;;;;;4.00;1.60;;;;;;;24.55;33.35;101800.16;6036967;28;20077;-68
2023/05/31 10:52:08;;;;;;;4.28;1.20;;;;;;;24.94;32.84;101793.84;6024073;28;20052;-68
2023/05/31 10:55:21;;;;;;;3.63;1.27;;;;;;;24.63;34.27;101791.78;6035861;28;20034;-68
2023/05/31 10:58:39;;;;;;;4.10;1.48;;;;;;;24.36;32.81;101784.72;6029503;28;20034;-68
2023/05/31 11:01:35;;;;;;;3.60;1.23;;;;;;;24.19;33.96;101791.63;6027420;28;20030;-68
2023/05/31 11:04:30;;;;;;;2.70;1.30;;;;;;;24.49;32.53;101787.41;6019635;28;20039;-68
2023/05/31 11:07:28;;;;;;;5.07;1.33;;;;;;;24.44;33.08;101787.22;6024790;28;20432;-68
2023/05/31 11:10:28;;;;;;;4.35;1.25;;;;;;;24.62;33.48;101776.53;6021126;28;20036;-68
2023/05/31 11:14:03;;;;;;;4.32;1.40;;;;;;;24.76;33.38;101789.03;6025216;28;20095;-68
2023/05/31 11:17:03;;;;;;;6.05;1.38;;;;;;;24.65;32.23;101767.16;6038136;28;20065;-68
2023/05/31 11:19:58;;;;;;;3.13;1.25;;;;;;;24.70;33.03;101775.50;6027787;28;20489;-68
2023/05/31 11:23:19;;;;;;;5.05;1.40;;;;;;;24.79;33.12;101777.78;6039803;28;20022;-67
2023/05/31 11:26:16;;;;;;;3.30;1.38;;;;;;;24.77;32.61;101771.72;6014510;28;20477;-68
2023/05/31 11:29:11;;;;;;;5.53;1.73;;;;;;;24.32;32.65;101755.53;6028172;28;20092;-68
2023/05/31 11:32:06;;;;;;;5.53;1.60;;;;;;;24.61;32.50;101747.75;6029305;28;20520;-67
2023/05/31 11:35:03;;;;;;;3.20;1.27;;;;;;;25.14;31.88;101755.75;6035975;28;20477;-68
2023/05/31 11:37:59;;;;;;;2.55;1.30;;;;;;;24.83;32.06;101749.19;6024331;28;20085;-68
2023/05/31 11:41:02;;;;;;;4.38;1.38;;;;;;;24.99;31.85;101747.88;6017169;28;20031;-68
2023/05/31 11:43:57;;;;;;;4.20;1.50;;;;;;;24.84;31.99;101745.41;6021259;28;20030;-68
2023/05/31 11:47:03;;;;;;;4.17;1.60;;;;;;;25.16;32.74;101723.78;6018794;28;20034;-68
2023/05/31 11:50:00;;;;;;;4.70;1.60;;;;;;;25.65;32.56;101748.38;6007761;28;20030;-68
2023/05/31 11:52:58;;;;;;;2.33;1.23;;;;;;;25.54;32.85;101716.47;6018872;28;20497;-68
2023/05/31 11:55:53;;;;;;;3.28;1.50;;;;;;;26.00;31.68;101730.53;6022740;28;20454;-68
2023/05/31 11:58:48;;;;;;;4.53;1.40;;;;;;;25.62;31.07;101732.50;6022918;28;20046;-68
2023/05/31 12:01:43;;;;;;;3.30;1.20;;;;;;;25.99;30.48;101717.97;6023489;28;20034;-68
2023/05/31 12:04:41;;;;;;;1.90;1.30;;;;;;;25.45;30.81;101718.56;6022752;28;20026;-68
2023/05/31 12:07:36;;;;;;;3.08;1.08;;;;;;;26.32;30.40;101695.09;6016776;28;20182;-68
2023/05/31 12:10:32;;;;;;;4.63;1.37;;;;;;;26.84;30.50;101708.13;6032560;28;20042;-68
2023/05/31 12:13:27;;;;;;;3.20;1.30;;;;;;;26.38;29.62;101700.47;6033518;28;20274;-69
2023/05/31 12:16:23;;;;;;;2.92;1.50;;;;;;;25.99;31.60;101693.50;6022990;28;20089;-69
2023/05/31 12:19:18;;;;;;;4.20;1.60;;;;;;;25.99;34.02;101684.50;6034347;28;20363;-68
2023/05/31 12:22:14;;;;;;;3.75;1.50;;;;;;;26.02;32.68;101701.22;6034897;28;20570;-68
2023/05/31 12:25:09;;;;;;;3.45;1.27;;;;;;;25.80;32.54;101685.50;6039959;28;20037;-68
2023/05/31 12:28:04;;;;;;;5.07;1.70;;;;;;;26.27;32.90;101675.91;6029057;28;20042;-68
2023/05/31 12:31:00;;;;;;;2.30;1.40;;;;;;;26.11;31.70;101693.59;6022105;28;20045;-69
2023/05/31 12:34:05;;;;;;;2.92;1.20;;;;;;;26.02;32.02;101682.19;6024418;28;20034;-68
2023/05/31 12:37:08;;;;;;;3.22;1.20;;;;;;;25.76;31.07;101684.31;6026094;28;20034;-68
2023/05/31 12:40:14;;;;;;;2.88;1.20;;;;;;;25.99;31.67;101685.34;6027292;28;20030;-68
2023/05/31 12:43:18;;;;;;;3.55;1.40;;;;;;;25.85;31.50;101672.09;6025944;28;20026;-67
2023/05/31 12:46:17;;;;;;;4.68;1.40;;;;;;;25.33;33.20;101681.44;6025453;28;20034;-69
2023/05/31 12:49:22;;;;;;;6.05;1.27;;;;;;;26.04;31.47;101680.06;6025787;28;20080;-68
2023/05/31 12:52:20;;;;;;;4.22;1.10;;;;;;;25.94;30.60;101663.44;6026130;28;20351;-68
2023/05/31 12:55:15;;;;;;;3.83;1.60;;;;;;;26.01;33.29;101653.31;6024007;28;20038;-69
2023/05/31 12:58:10;;;;;;;4.07;1.37;;;;;;;26.14;32.84;101657.00;6024083;28;20101;-68
2023/05/31 13:01:07;;;;;;;6.13;1.80;;;;;;;26.59;31.92;101658.34;6019295;28;20532;-68
2023/05/31 13:04:02;;;;;;;4.18;1.40;;;;;;;26.53;32.19;101665.53;6012436;28;20409;-68
2023/05/31 13:06:58;;;;;;;4.63;1.40;;;;;;;26.42;32.36;101652.69;6027433;28;20060;-68
2023/05/31 13:09:53;;;;;;;3.63;1.40;;;;;;;26.59;32.30;101650.19;6032553;28;20030;-68
2023/05/31 13:12:49;;;;;;;5.95;1.48;;;;;;;26.96;30.13;101648.28;6024588;28;21720;-68
2023/05/31 13:15:45;;;;;;;4.13;1.40;;;;;;;27.12;31.23;101642.97;6036873;28;20046;-68
2023/05/31 13:18:41;;;;;;;3.33;1.40;;;;;;;26.74;28.98;101633.47;6039420;28;20265;-68
2023/05/31 13:21:36;;;;;;;3.07;1.20;;;;;;;27.35;29.47;101638.66;6023450;28;20042;-69
2023/05/31 13:24:31;;;;;;;4.93;1.42;;;;;;;27.19;30.36;101638.28;6018975;28;20462;-69
2023/05/31 13:27:27;;;;;;;3.58;1.58;;;;;;;26.54;31.25;101636.44;6021446;28;20085;-68
2023/05/31 13:30:22;;;;;;;3.13;1.50;;;;;;;26.81;33.57;101640.50;6017424;28;20030;-69
2023/05/31 13:33:18;;;;;;;3.77;1.80;;;;;;;26.98;32.67;101630.66;6014410;28;20035;-69
2023/05/31 13:36:14;;;;;;;8.93;1.95;;;;;;;26.91;31.55;101635.34;6019160;28;20041;-69
2023/05/31 13:39:13;;;;;;;3.40;1.50;;;;;;;27.05;31.96;101631.38;6024296;28;20470;-70
2023/05/31 13:42:08;;;;;;;5.07;1.42;;;;;;;26.82;32.14;101634.03;6022243;28;20066;-69